sensor_id;sensor_type;location;lat;lon;timestamp;P1;durP1;ratioP1;P2;durP2;ratioP2
4504;SDS011;2265;48.794;9.520;2023-06-22T00:01:19;12.20;;;5.63;;
4504;SDS011;2265;48.794;9.520;2023-06-22T00:03:48;10.10;;;5.23;;
4504;SDS011;2265;48.794;9.520;2023-06-22T00:06:16;8.90;;;5.27;;
4504;SDS011;2265;48.794;9.520;2023-06-22T00:08:43;10.30;;;5.57;;
4504;SDS011;2265;48.794;9.520;2023-06-22T00:11:10;17.23;;;5.83;;
4504;SDS011;2265;48.794;9.520;2023-06-22T00:13:37;13.17;;;5.87;;
4504;SDS011;2265;48.794;9.520;2023-06-22T00:16:05;8.50;;;5.13;;
4504;SDS011;2265;48.794;9.520;2023-06-22T00:18:32;10.57;;;5.07;;
4504;SDS011;2265;48.794;9.520;2023-06-22T00:21:00;9.53;;;5.00;;
4504;SDS011;2265;48.794;9.520;2023-06-22T00:23:27;9.80;;;5.67;;
4504;SDS011;2265;48.794;9.520;2023-06-22T00:25:59;8.90;;;5.37;;
4504;SDS011;2265;48.794;9.520;2023-06-22T00:28:26;10.03;;;5.40;;
4504;SDS011;2265;48.794;9.520;2023-06-22T00:30:54;10.43;;;5.30;;
4504;SDS011;2265;48.794;9.520;2023-06-22T00:33:21;10.73;;;5.50;;
4504;SDS011;2265;48.794;9.520;2023-06-22T00:35:48;7.27;;;4.70;;
4504;SDS011;2265;48.794;9.520;2023-06-22T00:38:19;12.70;;;5.73;;
4504;SDS011;2265;48.794;9.520;2023-06-22T00:40:46;8.43;;;5.00;;
4504;SDS011;2265;48.794;9.520;2023-06-22T00:43:13;10.03;;;5.27;;
4504;SDS011;2265;48.794;9.520;2023-06-22T00:45:40;10.77;;;5.20;;
4504;SDS011;2265;48.794;9.520;2023-06-22T00:48:07;13.50;;;5.40;;
4504;SDS011;2265;48.794;9.520;2023-06-22T00:50:35;8.30;;;4.37;;
4504;SDS011;2265;48.794;9.520;2023-06-22T00:53:04;14.00;;;5.47;;
4504;SDS011;2265;48.794;9.520;2023-06-22T00:55:35;10.40;;;4.40;;
4504;SDS011;2265;48.794;9.520;2023-06-22T00:58:04;8.33;;;4.70;;
4504;SDS011;2265;48.794;9.520;2023-06-22T01:00:35;10.47;;;4.93;;
4504;SDS011;2265;48.794;9.520;2023-06-22T01:03:03;10.03;;;5.40;;
4504;SDS011;2265;48.794;9.520;2023-06-22T01:05:33;9.93;;;4.97;;
4504;SDS011;2265;48.794;9.520;2023-06-22T01:08:05;11.57;;;5.40;;
4504;SDS011;2265;48.794;9.520;2023-06-22T01:10:52;10.30;;;5.10;;
4504;SDS011;2265;48.794;9.520;2023-06-22T01:13:28;9.63;;;5.30;;
4504;SDS011;2265;48.794;9.520;2023-06-22T01:16:00;9.00;;;5.00;;
4504;SDS011;2265;48.794;9.520;2023-06-22T01:18:30;8.43;;;4.87;;
4504;SDS011;2265;48.794;9.520;2023-06-22T01:21:01;9.90;;;5.33;;
4504;SDS011;2265;48.794;9.520;2023-06-22T01:23:36;10.53;;;4.80;;
4504;SDS011;2265;48.794;9.520;2023-06-22T01:26:21;7.93;;;5.00;;
4504;SDS011;2265;48.794;9.520;2023-06-22T01:28:56;10.30;;;5.17;;
4504;SDS011;2265;48.794;9.520;2023-06-22T01:31:26;9.30;;;4.97;;
4504;SDS011;2265;48.794;9.520;2023-06-22T01:33:57;18.33;;;5.50;;
4504;SDS011;2265;48.794;9.520;2023-06-22T01:36:27;7.60;;;4.70;;
4504;SDS011;2265;48.794;9.520;2023-06-22T01:38:55;6.90;;;4.37;;
4504;SDS011;2265;48.794;9.520;2023-06-22T01:41:25;10.63;;;5.57;;
4504;SDS011;2265;48.794;9.520;2023-06-22T01:43:54;9.30;;;5.57;;
4504;SDS011;2265;48.794;9.520;2023-06-22T01:46:23;10.87;;;5.30;;
4504;SDS011;2265;48.794;9.520;2023-06-22T01:48:51;10.70;;;5.83;;
4504;SDS011;2265;48.794;9.520;2023-06-22T01:51:19;10.57;;;5.57;;
4504;SDS011;2265;48.794;9.520;2023-06-22T01:53:46;10.20;;;5.70;;
4504;SDS011;2265;48.794;9.520;2023-06-22T01:56:14;7.70;;;4.77;;
4504;SDS011;2265;48.794;9.520;2023-06-22T01:58:45;10.37;;;5.60;;
4504;SDS011;2265;48.794;9.520;2023-06-22T02:01:19;9.20;;;5.20;;
4504;SDS011;2265;48.794;9.520;2023-06-22T02:03:52;11.03;;;5.70;;
4504;SDS011;2265;48.794;9.520;2023-06-22T02:06:24;8.03;;;5.07;;
4504;SDS011;2265;48.794;9.520;2023-06-22T02:09:01;11.10;;;5.47;;
4504;SDS011;2265;48.794;9.520;2023-06-22T02:11:32;8.73;;;5.30;;
4504;SDS011;2265;48.794;9.520;2023-06-22T02:14:01;13.70;;;4.77;;
4504;SDS011;2265;48.794;9.520;2023-06-22T02:16:30;10.27;;;5.30;;
4504;SDS011;2265;48.794;9.520;2023-06-22T02:18:58;9.07;;;4.93;;
4504;SDS011;2265;48.794;9.520;2023-06-22T02:21:29;12.43;;;5.20;;
4504;SDS011;2265;48.794;9.520;2023-06-22T02:23:57;8.50;;;4.80;;
4504;SDS011;2265;48.794;9.520;2023-06-22T02:26:24;9.83;;;4.70;;
4504;SDS011;2265;48.794;9.520;2023-06-22T02:28:52;7.10;;;4.53;;
4504;SDS011;2265;48.794;9.520;2023-06-22T02:31:20;9.53;;;4.93;;
4504;SDS011;2265;48.794;9.520;2023-06-22T02:33:55;9.30;;;4.90;;
4504;SDS011;2265;48.794;9.520;2023-06-22T02:36:24;8.77;;;4.80;;
4504;SDS011;2265;48.794;9.520;2023-06-22T02:38:55;6.87;;;4.77;;
4504;SDS011;2265;48.794;9.520;2023-06-22T02:41:26;8.00;;;4.30;;
4504;SDS011;2265;48.794;9.520;2023-06-22T02:43:53;12.17;;;5.30;;
4504;SDS011;2265;48.794;9.520;2023-06-22T02:46:20;8.20;;;4.90;;
4504;SDS011;2265;48.794;9.520;2023-06-22T02:48:48;10.80;;;5.20;;
4504;SDS011;2265;48.794;9.520;2023-06-22T02:51:15;9.70;;;5.50;;
4504;SDS011;2265;48.794;9.520;2023-06-22T02:53:43;7.47;;;4.63;;
4504;SDS011;2265;48.794;9.520;2023-06-22T02:56:10;10.10;;;5.27;;
4504;SDS011;2265;48.794;9.520;2023-06-22T02:58:39;8.57;;;4.27;;
4504;SDS011;2265;48.794;9.520;2023-06-22T03:01:06;8.50;;;5.00;;
4504;SDS011;2265;48.794;9.520;2023-06-22T03:03:33;10.37;;;5.20;;
4504;SDS011;2265;48.794;9.520;2023-06-22T03:06:01;9.30;;;4.70;;
4504;SDS011;2265;48.794;9.520;2023-06-22T03:08:28;8.13;;;4.67;;
4504;SDS011;2265;48.794;9.520;2023-06-22T03:10:55;10.93;;;4.87;;
4504;SDS011;2265;48.794;9.520;2023-06-22T03:13:22;8.90;;;4.93;;
4504;SDS011;2265;48.794;9.520;2023-06-22T03:15:50;9.00;;;5.40;;
4504;SDS011;2265;48.794;9.520;2023-06-22T03:18:17;8.00;;;4.70;;
4504;SDS011;2265;48.794;9.520;2023-06-22T03:20:44;9.77;;;4.70;;
4504;SDS011;2265;48.794;9.520;2023-06-22T03:23:13;6.70;;;4.40;;
4504;SDS011;2265;48.794;9.520;2023-06-22T03:25:40;11.10;;;4.80;;
4504;SDS011;2265;48.794;9.520;2023-06-22T03:28:09;10.00;;;4.90;;
4504;SDS011;2265;48.794;9.520;2023-06-22T03:30:37;10.30;;;4.63;;
4504;SDS011;2265;48.794;9.520;2023-06-22T03:33:04;9.70;;;5.13;;
4504;SDS011;2265;48.794;9.520;2023-06-22T03:35:32;13.23;;;4.87;;
4504;SDS011;2265;48.794;9.520;2023-06-22T03:37:59;9.83;;;5.07;;
4504;SDS011;2265;48.794;9.520;2023-06-22T03:40:27;9.47;;;4.93;;
4504;SDS011;2265;48.794;9.520;2023-06-22T03:42:55;9.00;;;5.20;;
4504;SDS011;2265;48.794;9.520;2023-06-22T03:45:22;12.37;;;6.13;;
4504;SDS011;2265;48.794;9.520;2023-06-22T03:47:49;8.60;;;5.00;;
4504;SDS011;2265;48.794;9.520;2023-06-22T03:50:16;8.90;;;4.70;;
4504;SDS011;2265;48.794;9.520;2023-06-22T03:52:45;9.93;;;5.20;;
4504;SDS011;2265;48.794;9.520;2023-06-22T03:55:12;7.50;;;4.33;;
4504;SDS011;2265;48.794;9.520;2023-06-22T03:57:41;9.67;;;5.27;;
4504;SDS011;2265;48.794;9.520;2023-06-22T04:00:08;9.90;;;4.77;;
4504;SDS011;2265;48.794;9.520;2023-06-22T04:02:36;9.80;;;5.60;;
4504;SDS011;2265;48.794;9.520;2023-06-22T04:05:03;9.13;;;4.87;;
4504;SDS011;2265;48.794;9.520;2023-06-22T04:07:31;15.40;;;6.10;;
4504;SDS011;2265;48.794;9.520;2023-06-22T04:09:58;11.13;;;5.80;;
4504;SDS011;2265;48.794;9.520;2023-06-22T04:12:26;9.80;;;5.77;;
4504;SDS011;2265;48.794;9.520;2023-06-22T04:14:54;7.97;;;4.70;;
4504;SDS011;2265;48.794;9.520;2023-06-22T04:17:21;9.80;;;5.50;;
4504;SDS011;2265;48.794;9.520;2023-06-22T04:19:50;9.67;;;5.17;;
4504;SDS011;2265;48.794;9.520;2023-06-22T04:22:17;8.60;;;5.27;;
4504;SDS011;2265;48.794;9.520;2023-06-22T04:24:44;10.00;;;5.00;;
4504;SDS011;2265;48.794;9.520;2023-06-22T04:27:11;8.90;;;5.43;;
4504;SDS011;2265;48.794;9.520;2023-06-22T04:29:38;10.77;;;6.10;;
4504;SDS011;2265;48.794;9.520;2023-06-22T04:32:15;10.33;;;5.07;;
4504;SDS011;2265;48.794;9.520;2023-06-22T04:34:50;9.83;;;5.73;;
4504;SDS011;2265;48.794;9.520;2023-06-22T04:37:17;17.63;;;4.97;;
4504;SDS011;2265;48.794;9.520;2023-06-22T04:39:44;8.60;;;4.87;;
4504;SDS011;2265;48.794;9.520;2023-06-22T04:42:12;8.43;;;5.23;;
4504;SDS011;2265;48.794;9.520;2023-06-22T04:44:39;10.37;;;5.13;;
4504;SDS011;2265;48.794;9.520;2023-06-22T04:47:06;9.40;;;5.70;;
4504;SDS011;2265;48.794;9.520;2023-06-22T04:49:36;11.23;;;6.10;;
4504;SDS011;2265;48.794;9.520;2023-06-22T04:52:06;11.87;;;5.90;;
4504;SDS011;2265;48.794;9.520;2023-06-22T04:54:35;12.63;;;6.27;;
4504;SDS011;2265;48.794;9.520;2023-06-22T04:57:03;10.23;;;5.37;;
4504;SDS011;2265;48.794;9.520;2023-06-22T04:59:35;8.13;;;4.87;;
4504;SDS011;2265;48.794;9.520;2023-06-22T05:02:04;11.10;;;6.20;;
4504;SDS011;2265;48.794;9.520;2023-06-22T05:04:33;10.47;;;5.60;;
4504;SDS011;2265;48.794;9.520;2023-06-22T05:07:03;9.80;;;5.37;;
4504;SDS011;2265;48.794;9.520;2023-06-22T05:09:31;11.80;;;5.00;;
4504;SDS011;2265;48.794;9.520;2023-06-22T05:11:59;10.90;;;5.90;;
4504;SDS011;2265;48.794;9.520;2023-06-22T05:14:30;8.53;;;5.17;;
4504;SDS011;2265;48.794;9.520;2023-06-22T05:16:57;10.63;;;5.53;;
4504;SDS011;2265;48.794;9.520;2023-06-22T05:19:28;11.27;;;5.80;;
4504;SDS011;2265;48.794;9.520;2023-06-22T05:21:59;7.93;;;4.60;;
4504;SDS011;2265;48.794;9.520;2023-06-22T05:24:26;6.50;;;4.20;;
4504;SDS011;2265;48.794;9.520;2023-06-22T05:26:53;8.40;;;4.57;;
4504;SDS011;2265;48.794;9.520;2023-06-22T05:29:20;13.03;;;5.30;;
4504;SDS011;2265;48.794;9.520;2023-06-22T05:31:48;14.10;;;5.17;;
4504;SDS011;2265;48.794;9.520;2023-06-22T05:34:15;8.13;;;4.33;;
4504;SDS011;2265;48.794;9.520;2023-06-22T05:36:42;8.10;;;4.20;;
4504;SDS011;2265;48.794;9.520;2023-06-22T05:39:14;7.93;;;4.60;;
4504;SDS011;2265;48.794;9.520;2023-06-22T05:41:41;9.13;;;4.93;;
4504;SDS011;2265;48.794;9.520;2023-06-22T05:44:09;7.80;;;4.60;;
4504;SDS011;2265;48.794;9.520;2023-06-22T05:46:36;7.90;;;4.50;;
4504;SDS011;2265;48.794;9.520;2023-06-22T05:49:03;9.57;;;4.50;;
4504;SDS011;2265;48.794;9.520;2023-06-22T05:51:30;9.37;;;4.60;;
4504;SDS011;2265;48.794;9.520;2023-06-22T05:53:58;11.20;;;4.67;;
4504;SDS011;2265;48.794;9.520;2023-06-22T05:56:27;8.57;;;4.90;;
4504;SDS011;2265;48.794;9.520;2023-06-22T05:58:54;9.03;;;5.07;;
4504;SDS011;2265;48.794;9.520;2023-06-22T06:01:21;6.50;;;3.97;;
4504;SDS011;2265;48.794;9.520;2023-06-22T06:03:48;9.20;;;4.47;;
4504;SDS011;2265;48.794;9.520;2023-06-22T06:06:17;7.77;;;4.50;;
4504;SDS011;2265;48.794;9.520;2023-06-22T06:08:46;12.30;;;4.83;;
4504;SDS011;2265;48.794;9.520;2023-06-22T06:11:14;7.43;;;4.50;;
4504;SDS011;2265;48.794;9.520;2023-06-22T06:13:42;8.50;;;4.70;;
4504;SDS011;2265;48.794;9.520;2023-06-22T06:16:10;6.97;;;4.37;;
4504;SDS011;2265;48.794;9.520;2023-06-22T06:18:37;9.00;;;5.30;;
4504;SDS011;2265;48.794;9.520;2023-06-22T06:21:04;8.33;;;4.90;;
4504;SDS011;2265;48.794;9.520;2023-06-22T06:23:32;6.90;;;4.00;;
4504;SDS011;2265;48.794;9.520;2023-06-22T06:25:59;6.83;;;3.87;;
4504;SDS011;2265;48.794;9.520;2023-06-22T06:28:26;7.60;;;4.20;;
4504;SDS011;2265;48.794;9.520;2023-06-22T06:30:55;7.67;;;4.50;;
4504;SDS011;2265;48.794;9.520;2023-06-22T06:33:22;7.00;;;3.83;;
4504;SDS011;2265;48.794;9.520;2023-06-22T06:35:49;8.17;;;4.30;;
4504;SDS011;2265;48.794;9.520;2023-06-22T06:38:16;8.53;;;4.70;;
4504;SDS011;2265;48.794;9.520;2023-06-22T06:40:43;7.97;;;4.73;;
4504;SDS011;2265;48.794;9.520;2023-06-22T06:43:10;7.83;;;4.70;;
4504;SDS011;2265;48.794;9.520;2023-06-22T06:45:40;8.33;;;4.17;;
4504;SDS011;2265;48.794;9.520;2023-06-22T06:48:08;8.13;;;4.10;;
4504;SDS011;2265;48.794;9.520;2023-06-22T06:50:35;7.47;;;4.37;;
4504;SDS011;2265;48.794;9.520;2023-06-22T06:53:02;12.30;;;3.93;;
4504;SDS011;2265;48.794;9.520;2023-06-22T06:55:30;9.30;;;4.57;;
4504;SDS011;2265;48.794;9.520;2023-06-22T06:57:59;9.33;;;4.07;;
4504;SDS011;2265;48.794;9.520;2023-06-22T07:00:26;9.03;;;4.10;;
4504;SDS011;2265;48.794;9.520;2023-06-22T07:02:53;6.43;;;4.03;;
4504;SDS011;2265;48.794;9.520;2023-06-22T07:05:22;10.00;;;4.37;;
4504;SDS011;2265;48.794;9.520;2023-06-22T07:07:51;6.47;;;3.87;;
4504;SDS011;2265;48.794;9.520;2023-06-22T07:10:19;7.37;;;4.10;;
4504;SDS011;2265;48.794;9.520;2023-06-22T07:12:46;5.87;;;3.73;;
4504;SDS011;2265;48.794;9.520;2023-06-22T07:15:13;7.10;;;3.97;;
4504;SDS011;2265;48.794;9.520;2023-06-22T07:17:40;6.87;;;4.00;;
4504;SDS011;2265;48.794;9.520;2023-06-22T07:20:09;9.00;;;4.63;;
4504;SDS011;2265;48.794;9.520;2023-06-22T07:22:38;7.17;;;4.03;;
4504;SDS011;2265;48.794;9.520;2023-06-22T07:25:06;8.67;;;4.60;;
4504;SDS011;2265;48.794;9.520;2023-06-22T07:27:36;7.90;;;4.30;;
4504;SDS011;2265;48.794;9.520;2023-06-22T07:30:05;8.17;;;4.20;;
4504;SDS011;2265;48.794;9.520;2023-06-22T07:32:33;6.93;;;4.00;;
4504;SDS011;2265;48.794;9.520;2023-06-22T07:35:00;6.60;;;3.90;;
4504;SDS011;2265;48.794;9.520;2023-06-22T07:37:29;6.97;;;4.00;;
4504;SDS011;2265;48.794;9.520;2023-06-22T07:39:59;19.03;;;3.93;;
4504;SDS011;2265;48.794;9.520;2023-06-22T07:42:31;6.97;;;3.87;;
4504;SDS011;2265;48.794;9.520;2023-06-22T07:44:59;9.00;;;4.27;;
4504;SDS011;2265;48.794;9.520;2023-06-22T07:47:27;6.43;;;4.03;;
4504;SDS011;2265;48.794;9.520;2023-06-22T07:49:54;8.80;;;4.10;;
4504;SDS011;2265;48.794;9.520;2023-06-22T07:52:23;5.67;;;3.80;;
4504;SDS011;2265;48.794;9.520;2023-06-22T07:54:51;7.47;;;4.00;;
4504;SDS011;2265;48.794;9.520;2023-06-22T07:57:19;6.60;;;3.93;;
4504;SDS011;2265;48.794;9.520;2023-06-22T07:59:47;6.57;;;3.93;;
4504;SDS011;2265;48.794;9.520;2023-06-22T08:02:14;9.50;;;4.23;;
4504;SDS011;2265;48.794;9.520;2023-06-22T08:04:41;8.13;;;3.67;;
4504;SDS011;2265;48.794;9.520;2023-06-22T08:07:08;6.60;;;3.70;;
4504;SDS011;2265;48.794;9.520;2023-06-22T08:09:36;5.80;;;3.80;;
4504;SDS011;2265;48.794;9.520;2023-06-22T08:12:04;5.27;;;3.63;;
4504;SDS011;2265;48.794;9.520;2023-06-22T08:14:35;7.23;;;3.53;;
4504;SDS011;2265;48.794;9.520;2023-06-22T08:17:04;5.90;;;3.80;;
4504;SDS011;2265;48.794;9.520;2023-06-22T08:19:32;6.20;;;3.77;;
4504;SDS011;2265;48.794;9.520;2023-06-22T08:21:59;6.97;;;3.97;;
4504;SDS011;2265;48.794;9.520;2023-06-22T08:24:26;7.57;;;3.50;;
4504;SDS011;2265;48.794;9.520;2023-06-22T08:27:01;7.07;;;3.63;;
4504;SDS011;2265;48.794;9.520;2023-06-22T08:29:29;5.90;;;3.40;;
4504;SDS011;2265;48.794;9.520;2023-06-22T08:31:57;5.30;;;3.20;;
4504;SDS011;2265;48.794;9.520;2023-06-22T08:34:24;5.53;;;3.30;;
4504;SDS011;2265;48.794;9.520;2023-06-22T08:36:53;5.70;;;3.40;;
4504;SDS011;2265;48.794;9.520;2023-06-22T08:39:20;6.00;;;3.40;;
4504;SDS011;2265;48.794;9.520;2023-06-22T08:41:47;11.30;;;3.73;;
4504;SDS011;2265;48.794;9.520;2023-06-22T08:44:16;5.83;;;3.73;;
4504;SDS011;2265;48.794;9.520;2023-06-22T08:46:45;5.37;;;3.40;;
4504;SDS011;2265;48.794;9.520;2023-06-22T08:49:13;8.90;;;3.60;;
4504;SDS011;2265;48.794;9.520;2023-06-22T08:51:41;8.00;;;3.67;;
4504;SDS011;2265;48.794;9.520;2023-06-22T08:54:09;8.67;;;3.40;;
4504;SDS011;2265;48.794;9.520;2023-06-22T08:56:36;7.30;;;4.17;;
4504;SDS011;2265;48.794;9.520;2023-06-22T08:59:03;7.87;;;3.70;;
4504;SDS011;2265;48.794;9.520;2023-06-22T09:01:33;6.90;;;3.90;;
4504;SDS011;2265;48.794;9.520;2023-06-22T09:04:00;12.23;;;3.97;;
4504;SDS011;2265;48.794;9.520;2023-06-22T09:06:28;6.50;;;3.43;;
4504;SDS011;2265;48.794;9.520;2023-06-22T09:08:56;6.70;;;3.67;;
4504;SDS011;2265;48.794;9.520;2023-06-22T09:11:24;7.27;;;3.47;;
4504;SDS011;2265;48.794;9.520;2023-06-22T09:13:52;6.83;;;3.50;;
4504;SDS011;2265;48.794;9.520;2023-06-22T09:16:19;7.60;;;3.90;;
4504;SDS011;2265;48.794;9.520;2023-06-22T09:18:47;10.80;;;3.97;;
4504;SDS011;2265;48.794;9.520;2023-06-22T09:21:14;9.67;;;4.20;;
4504;SDS011;2265;48.794;9.520;2023-06-22T09:23:43;5.93;;;3.33;;
4504;SDS011;2265;48.794;9.520;2023-06-22T09:26:15;7.10;;;3.93;;
4504;SDS011;2265;48.794;9.520;2023-06-22T09:28:42;7.37;;;4.20;;
4504;SDS011;2265;48.794;9.520;2023-06-22T09:31:09;5.90;;;3.70;;
4504;SDS011;2265;48.794;9.520;2023-06-22T09:33:37;7.57;;;4.13;;
4504;SDS011;2265;48.794;9.520;2023-06-22T09:36:07;11.13;;;5.00;;
4504;SDS011;2265;48.794;9.520;2023-06-22T09:38:34;9.23;;;4.13;;
4504;SDS011;2265;48.794;9.520;2023-06-22T09:41:04;9.27;;;3.97;;
4504;SDS011;2265;48.794;9.520;2023-06-22T09:43:31;8.30;;;3.80;;
4504;SDS011;2265;48.794;9.520;2023-06-22T09:46:00;7.70;;;4.27;;
4504;SDS011;2265;48.794;9.520;2023-06-22T09:48:27;6.47;;;4.10;;
4504;SDS011;2265;48.794;9.520;2023-06-22T09:50:54;8.27;;;4.23;;
4504;SDS011;2265;48.794;9.520;2023-06-22T09:53:22;6.20;;;3.60;;
4504;SDS011;2265;48.794;9.520;2023-06-22T09:55:49;11.47;;;4.40;;
4504;SDS011;2265;48.794;9.520;2023-06-22T09:58:17;9.00;;;4.07;;
4504;SDS011;2265;48.794;9.520;2023-06-22T10:00:44;13.13;;;4.40;;
4504;SDS011;2265;48.794;9.520;2023-06-22T10:03:11;8.37;;;4.10;;
4504;SDS011;2265;48.794;9.520;2023-06-22T10:05:38;11.00;;;4.50;;
4504;SDS011;2265;48.794;9.520;2023-06-22T10:08:07;6.83;;;4.20;;
4504;SDS011;2265;48.794;9.520;2023-06-22T10:10:35;9.47;;;4.57;;
4504;SDS011;2265;48.794;9.520;2023-06-22T10:13:04;9.80;;;4.70;;
4504;SDS011;2265;48.794;9.520;2023-06-22T10:15:36;8.30;;;4.47;;
4504;SDS011;2265;48.794;9.520;2023-06-22T10:18:04;7.37;;;3.87;;
4504;SDS011;2265;48.794;9.520;2023-06-22T10:20:32;6.90;;;4.17;;
4504;SDS011;2265;48.794;9.520;2023-06-22T10:22:59;7.57;;;4.40;;
4504;SDS011;2265;48.794;9.520;2023-06-22T10:25:26;8.33;;;4.70;;
4504;SDS011;2265;48.794;9.520;2023-06-22T10:27:54;7.63;;;4.50;;
4504;SDS011;2265;48.794;9.520;2023-06-22T10:30:22;8.50;;;4.53;;
4504;SDS011;2265;48.794;9.520;2023-06-22T10:32:50;6.87;;;3.80;;
4504;SDS011;2265;48.794;9.520;2023-06-22T10:35:17;8.07;;;4.23;;
4504;SDS011;2265;48.794;9.520;2023-06-22T10:37:45;13.23;;;4.67;;
4504;SDS011;2265;48.794;9.520;2023-06-22T10:40:13;11.47;;;4.30;;
4504;SDS011;2265;48.794;9.520;2023-06-22T10:42:41;15.07;;;4.30;;
4504;SDS011;2265;48.794;9.520;2023-06-22T10:45:08;7.40;;;4.67;;
4504;SDS011;2265;48.794;9.520;2023-06-22T10:47:36;6.70;;;4.17;;
4504;SDS011;2265;48.794;9.520;2023-06-22T10:50:05;7.13;;;4.43;;
4504;SDS011;2265;48.794;9.520;2023-06-22T10:52:33;7.80;;;4.67;;
4504;SDS011;2265;48.794;9.520;2023-06-22T10:55:00;11.90;;;4.30;;
4504;SDS011;2265;48.794;9.520;2023-06-22T10:57:28;8.23;;;4.00;;
4504;SDS011;2265;48.794;9.520;2023-06-22T10:59:55;7.37;;;4.57;;
4504;SDS011;2265;48.794;9.520;2023-06-22T11:02:22;7.60;;;4.20;;
4504;SDS011;2265;48.794;9.520;2023-06-22T11:04:49;8.53;;;4.60;;
4504;SDS011;2265;48.794;9.520;2023-06-22T11:07:20;7.67;;;4.47;;
4504;SDS011;2265;48.794;9.520;2023-06-22T11:09:47;10.67;;;5.07;;
4504;SDS011;2265;48.794;9.520;2023-06-22T11:12:14;8.80;;;4.53;;
4504;SDS011;2265;48.794;9.520;2023-06-22T11:14:41;15.87;;;4.50;;
4504;SDS011;2265;48.794;9.520;2023-06-22T11:17:08;19.33;;;4.80;;
4504;SDS011;2265;48.794;9.520;2023-06-22T11:19:35;9.50;;;4.93;;
4504;SDS011;2265;48.794;9.520;2023-06-22T11:22:04;8.33;;;4.40;;
4504;SDS011;2265;48.794;9.520;2023-06-22T11:24:33;6.43;;;3.90;;
4504;SDS011;2265;48.794;9.520;2023-06-22T11:27:00;9.50;;;4.07;;
4504;SDS011;2265;48.794;9.520;2023-06-22T11:29:27;8.87;;;4.40;;
4504;SDS011;2265;48.794;9.520;2023-06-22T11:31:56;7.60;;;4.77;;
4504;SDS011;2265;48.794;9.520;2023-06-22T11:34:23;9.50;;;4.80;;
4504;SDS011;2265;48.794;9.520;2023-06-22T11:36:50;8.13;;;4.30;;
4504;SDS011;2265;48.794;9.520;2023-06-22T11:39:17;8.73;;;4.50;;
4504;SDS011;2265;48.794;9.520;2023-06-22T11:41:45;9.57;;;4.57;;
4504;SDS011;2265;48.794;9.520;2023-06-22T11:44:13;9.33;;;4.60;;
4504;SDS011;2265;48.794;9.520;2023-06-22T11:46:40;9.13;;;4.70;;
4504;SDS011;2265;48.794;9.520;2023-06-22T11:49:07;8.13;;;4.90;;
4504;SDS011;2265;48.794;9.520;2023-06-22T11:51:34;9.80;;;4.80;;
4504;SDS011;2265;48.794;9.520;2023-06-22T11:54:01;10.10;;;5.30;;
4504;SDS011;2265;48.794;9.520;2023-06-22T11:56:29;8.93;;;4.80;;
4504;SDS011;2265;48.794;9.520;2023-06-22T11:59:00;11.40;;;5.47;;
4504;SDS011;2265;48.794;9.520;2023-06-22T12:01:27;8.43;;;4.73;;
4504;SDS011;2265;48.794;9.520;2023-06-22T12:03:54;8.33;;;4.77;;
4504;SDS011;2265;48.794;9.520;2023-06-22T12:06:21;11.37;;;5.00;;
4504;SDS011;2265;48.794;9.520;2023-06-22T12:08:48;7.77;;;4.93;;
4504;SDS011;2265;48.794;9.520;2023-06-22T12:11:15;7.17;;;4.33;;
4504;SDS011;2265;48.794;9.520;2023-06-22T12:13:42;12.10;;;5.10;;
4504;SDS011;2265;48.794;9.520;2023-06-22T12:16:11;9.17;;;3.90;;
4504;SDS011;2265;48.794;9.520;2023-06-22T12:18:39;8.57;;;4.50;;
4504;SDS011;2265;48.794;9.520;2023-06-22T12:21:06;7.00;;;4.10;;
4504;SDS011;2265;48.794;9.520;2023-06-22T12:23:33;11.20;;;4.70;;
4504;SDS011;2265;48.794;9.520;2023-06-22T12:26:00;8.87;;;4.80;;
4504;SDS011;2265;48.794;9.520;2023-06-22T12:28:27;8.77;;;5.00;;
4504;SDS011;2265;48.794;9.520;2023-06-22T12:30:54;12.17;;;5.10;;
4504;SDS011;2265;48.794;9.520;2023-06-22T12:33:23;7.53;;;4.80;;
4504;SDS011;2265;48.794;9.520;2023-06-22T12:35:50;8.87;;;4.80;;
4504;SDS011;2265;48.794;9.520;2023-06-22T12:38:17;8.10;;;4.90;;
4504;SDS011;2265;48.794;9.520;2023-06-22T12:40:44;14.67;;;4.70;;
4504;SDS011;2265;48.794;9.520;2023-06-22T12:43:12;10.33;;;4.60;;
4504;SDS011;2265;48.794;9.520;2023-06-22T12:45:39;9.37;;;5.00;;
4504;SDS011;2265;48.794;9.520;2023-06-22T12:48:07;8.87;;;4.70;;
4504;SDS011;2265;48.794;9.520;2023-06-22T12:50:36;10.50;;;5.67;;
4504;SDS011;2265;48.794;9.520;2023-06-22T12:53:03;9.73;;;4.53;;
4504;SDS011;2265;48.794;9.520;2023-06-22T12:55:32;9.27;;;5.20;;
4504;SDS011;2265;48.794;9.520;2023-06-22T12:57:59;7.53;;;4.30;;
4504;SDS011;2265;48.794;9.520;2023-06-22T13:00:27;14.43;;;5.50;;
4504;SDS011;2265;48.794;9.520;2023-06-22T13:02:54;10.93;;;4.70;;
4504;SDS011;2265;48.794;9.520;2023-06-22T13:05:23;9.40;;;4.77;;
4504;SDS011;2265;48.794;9.520;2023-06-22T13:07:52;10.33;;;5.07;;
4504;SDS011;2265;48.794;9.520;2023-06-22T13:10:19;14.27;;;4.90;;
4504;SDS011;2265;48.794;9.520;2023-06-22T13:12:46;9.53;;;5.60;;
4504;SDS011;2265;48.794;9.520;2023-06-22T13:15:13;9.50;;;4.70;;
4504;SDS011;2265;48.794;9.520;2023-06-22T13:17:40;10.67;;;4.80;;
4504;SDS011;2265;48.794;9.520;2023-06-22T13:20:07;15.63;;;5.27;;
4504;SDS011;2265;48.794;9.520;2023-06-22T13:22:35;8.23;;;4.73;;
4504;SDS011;2265;48.794;9.520;2023-06-22T13:25:07;14.50;;;5.23;;
4504;SDS011;2265;48.794;9.520;2023-06-22T13:27:37;8.70;;;5.00;;
4504;SDS011;2265;48.794;9.520;2023-06-22T13:30:11;8.97;;;5.03;;
4504;SDS011;2265;48.794;9.520;2023-06-22T13:32:39;10.03;;;5.17;;
4504;SDS011;2265;48.794;9.520;2023-06-22T13:35:07;13.20;;;5.53;;
4504;SDS011;2265;48.794;9.520;2023-06-22T13:37:35;11.07;;;5.27;;
4504;SDS011;2265;48.794;9.520;2023-06-22T13:40:02;14.13;;;5.27;;
4504;SDS011;2265;48.794;9.520;2023-06-22T13:42:33;11.17;;;4.83;;
4504;SDS011;2265;48.794;9.520;2023-06-22T13:45:00;8.60;;;5.50;;
4504;SDS011;2265;48.794;9.520;2023-06-22T13:47:27;8.27;;;4.80;;
4504;SDS011;2265;48.794;9.520;2023-06-22T13:49:55;7.23;;;4.53;;
4504;SDS011;2265;48.794;9.520;2023-06-22T13:52:22;9.03;;;5.17;;
4504;SDS011;2265;48.794;9.520;2023-06-22T13:54:51;8.07;;;5.40;;
4504;SDS011;2265;48.794;9.520;2023-06-22T13:57:20;10.80;;;5.20;;
4504;SDS011;2265;48.794;9.520;2023-06-22T13:59:49;12.93;;;5.00;;
4504;SDS011;2265;48.794;9.520;2023-06-22T14:02:18;12.90;;;5.70;;
4504;SDS011;2265;48.794;9.520;2023-06-22T14:04:45;16.70;;;6.30;;
4504;SDS011;2265;48.794;9.520;2023-06-22T14:07:12;11.83;;;4.87;;
4504;SDS011;2265;48.794;9.520;2023-06-22T14:09:40;15.27;;;5.43;;
4504;SDS011;2265;48.794;9.520;2023-06-22T14:12:08;8.80;;;4.63;;
4504;SDS011;2265;48.794;9.520;2023-06-22T14:14:36;9.27;;;4.70;;
4504;SDS011;2265;48.794;9.520;2023-06-22T14:17:07;8.43;;;4.70;;
4504;SDS011;2265;48.794;9.520;2023-06-22T14:19:41;10.30;;;4.20;;
4504;SDS011;2265;48.794;9.520;2023-06-22T14:22:08;10.10;;;4.67;;
4504;SDS011;2265;48.794;9.520;2023-06-22T14:24:35;7.87;;;4.30;;
4504;SDS011;2265;48.794;9.520;2023-06-22T14:27:03;7.43;;;4.23;;
4504;SDS011;2265;48.794;9.520;2023-06-22T14:29:32;10.13;;;4.30;;
4504;SDS011;2265;48.794;9.520;2023-06-22T14:31:59;9.80;;;4.30;;
4504;SDS011;2265;48.794;9.520;2023-06-22T14:34:29;12.17;;;4.10;;
4504;SDS011;2265;48.794;9.520;2023-06-22T14:36:56;11.30;;;4.90;;
4504;SDS011;2265;48.794;9.520;2023-06-22T14:39:32;6.33;;;4.10;;
4504;SDS011;2265;48.794;9.520;2023-06-22T14:42:00;8.30;;;3.77;;
4504;SDS011;2265;48.794;9.520;2023-06-22T14:44:28;8.40;;;3.80;;
4504;SDS011;2265;48.794;9.520;2023-06-22T14:46:56;11.17;;;4.27;;
4504;SDS011;2265;48.794;9.520;2023-06-22T14:49:25;12.60;;;4.10;;
4504;SDS011;2265;48.794;9.520;2023-06-22T14:51:54;6.80;;;3.77;;
4504;SDS011;2265;48.794;9.520;2023-06-22T14:54:21;19.70;;;4.43;;
4504;SDS011;2265;48.794;9.520;2023-06-22T14:56:48;8.00;;;4.50;;
4504;SDS011;2265;48.794;9.520;2023-06-22T14:59:16;10.30;;;4.07;;
4504;SDS011;2265;48.794;9.520;2023-06-22T15:01:43;9.60;;;4.27;;
4504;SDS011;2265;48.794;9.520;2023-06-22T15:04:10;9.53;;;4.40;;
4504;SDS011;2265;48.794;9.520;2023-06-22T15:06:37;14.40;;;4.77;;
4504;SDS011;2265;48.794;9.520;2023-06-22T15:09:07;7.07;;;3.90;;
4504;SDS011;2265;48.794;9.520;2023-06-22T15:11:34;12.53;;;4.47;;
4504;SDS011;2265;48.794;9.520;2023-06-22T15:14:01;9.00;;;4.27;;
4504;SDS011;2265;48.794;9.520;2023-06-22T15:16:28;13.07;;;5.00;;